sensor_id;sensor_type;location;lat;lon;timestamp;P1;durP1;ratioP1;P2;durP2;ratioP2
39740;SDS011;25426;53.478;10.190;2022-10-18T00:01:26;17.65;;;12.38;;
39740;SDS011;25426;53.478;10.190;2022-10-18T00:04:04;19.80;;;12.98;;
39740;SDS011;25426;53.478;10.190;2022-10-18T00:06:35;18.27;;;12.85;;
39740;SDS011;25426;53.478;10.190;2022-10-18T00:09:10;18.17;;;13.93;;
39740;SDS011;25426;53.478;10.190;2022-10-18T00:11:44;24.23;;;14.63;;
39740;SDS011;25426;53.478;10.190;2022-10-18T00:14:14;20.15;;;13.30;;
39740;SDS011;25426;53.478;10.190;2022-10-18T00:16:45;20.83;;;14.52;;
39740;SDS011;25426;53.478;10.190;2022-10-18T00:19:16;20.55;;;13.98;;
39740;SDS011;25426;53.478;10.190;2022-10-18T00:21:52;19.10;;;13.55;;
39740;SDS011;25426;53.478;10.190;2022-10-18T00:24:23;22.08;;;14.82;;
39740;SDS011;25426;53.478;10.190;2022-10-18T00:26:54;24.17;;;14.35;;
39740;SDS011;25426;53.478;10.190;2022-10-18T00:29:25;24.55;;;15.48;;
39740;SDS011;25426;53.478;10.190;2022-10-18T00:31:56;20.92;;;14.02;;
39740;SDS011;25426;53.478;10.190;2022-10-18T00:34:27;19.95;;;14.50;;
39740;SDS011;25426;53.478;10.190;2022-10-18T00:37:02;24.42;;;15.88;;
39740;SDS011;25426;53.478;10.190;2022-10-18T00:39:33;22.20;;;14.05;;
39740;SDS011;25426;53.478;10.190;2022-10-18T00:42:04;15.13;;;12.40;;
39740;SDS011;25426;53.478;10.190;2022-10-18T00:47:14;20.05;;;14.35;;
39740;SDS011;25426;53.478;10.190;2022-10-18T00:49:48;18.55;;;13.82;;
39740;SDS011;25426;53.478;10.190;2022-10-18T00:52:25;20.58;;;14.18;;
39740;SDS011;25426;53.478;10.190;2022-10-18T00:55:25;23.83;;;14.65;;
39740;SDS011;25426;53.478;10.190;2022-10-18T00:58:04;28.27;;;16.83;;
39740;SDS011;25426;53.478;10.190;2022-10-18T01:00:35;20.25;;;14.98;;
39740;SDS011;25426;53.478;10.190;2022-10-18T01:03:12;15.38;;;11.35;;
39740;SDS011;25426;53.478;10.190;2022-10-18T01:05:44;24.17;;;14.57;;
39740;SDS011;25426;53.478;10.190;2022-10-18T01:17:45;31.48;;;16.48;;
39740;SDS011;25426;53.478;10.190;2022-10-18T01:21:15;26.15;;;16.15;;
39740;SDS011;25426;53.478;10.190;2022-10-18T01:24:33;22.73;;;14.77;;
39740;SDS011;25426;53.478;10.190;2022-10-18T01:31:00;26.52;;;16.92;;
39740;SDS011;25426;53.478;10.190;2022-10-18T01:33:52;23.08;;;14.50;;
39740;SDS011;25426;53.478;10.190;2022-10-18T01:36:37;21.85;;;15.27;;
39740;SDS011;25426;53.478;10.190;2022-10-18T01:39:25;19.63;;;14.60;;
39740;SDS011;25426;53.478;10.190;2022-10-18T01:42:05;19.65;;;13.23;;
39740;SDS011;25426;53.478;10.190;2022-10-18T01:44:42;19.88;;;13.07;;
39740;SDS011;25426;53.478;10.190;2022-10-18T01:47:14;29.17;;;16.77;;
39740;SDS011;25426;53.478;10.190;2022-10-18T01:49:45;33.35;;;18.88;;
39740;SDS011;25426;53.478;10.190;2022-10-18T01:52:16;23.00;;;14.43;;
39740;SDS011;25426;53.478;10.190;2022-10-18T01:54:50;38.30;;;20.45;;
39740;SDS011;25426;53.478;10.190;2022-10-18T01:57:35;27.75;;;15.85;;
39740;SDS011;25426;53.478;10.190;2022-10-18T02:00:15;24.95;;;14.15;;
39740;SDS011;25426;53.478;10.190;2022-10-18T02:03:04;30.90;;;19.08;;
39740;SDS011;25426;53.478;10.190;2022-10-18T02:09:02;34.30;;;20.02;;
39740;SDS011;25426;53.478;10.190;2022-10-18T02:11:43;35.80;;;21.85;;
39740;SDS011;25426;53.478;10.190;2022-10-18T02:14:16;30.20;;;19.48;;
39740;SDS011;25426;53.478;10.190;2022-10-18T02:16:52;30.20;;;18.80;;
39740;SDS011;25426;53.478;10.190;2022-10-18T02:19:34;32.15;;;21.55;;
39740;SDS011;25426;53.478;10.190;2022-10-18T02:22:27;20.70;;;15.20;;
39740;SDS011;25426;53.478;10.190;2022-10-18T02:25:04;27.75;;;18.02;;
39740;SDS011;25426;53.478;10.190;2022-10-18T02:27:39;36.95;;;21.90;;
39740;SDS011;25426;53.478;10.190;2022-10-18T02:30:12;32.13;;;20.85;;
39740;SDS011;25426;53.478;10.190;2022-10-18T02:32:48;20.10;;;14.70;;
39740;SDS011;25426;53.478;10.190;2022-10-18T02:35:36;29.92;;;18.17;;
39740;SDS011;25426;53.478;10.190;2022-10-18T02:38:23;28.52;;;16.27;;
39740;SDS011;25426;53.478;10.190;2022-10-18T02:40:54;26.25;;;18.05;;
39740;SDS011;25426;53.478;10.190;2022-10-18T02:43:25;39.60;;;19.67;;
39740;SDS011;25426;53.478;10.190;2022-10-18T02:45:56;27.67;;;18.33;;
39740;SDS011;25426;53.478;10.190;2022-10-18T02:48:30;22.08;;;15.23;;
39740;SDS011;25426;53.478;10.190;2022-10-18T02:51:03;40.63;;;22.60;;
39740;SDS011;25426;53.478;10.190;2022-10-18T02:53:34;35.55;;;21.63;;
39740;SDS011;25426;53.478;10.190;2022-10-18T02:56:05;40.50;;;23.80;;
39740;SDS011;25426;53.478;10.190;2022-10-18T02:58:36;33.80;;;20.83;;
39740;SDS011;25426;53.478;10.190;2022-10-18T03:01:07;34.22;;;21.00;;
39740;SDS011;25426;53.478;10.190;2022-10-18T03:03:43;33.50;;;18.83;;
39740;SDS011;25426;53.478;10.190;2022-10-18T03:06:14;45.20;;;25.00;;
39740;SDS011;25426;53.478;10.190;2022-10-18T03:08:45;35.15;;;21.50;;
39740;SDS011;25426;53.478;10.190;2022-10-18T03:11:16;32.97;;;18.70;;
39740;SDS011;25426;53.478;10.190;2022-10-18T03:13:54;42.15;;;23.52;;
39740;SDS011;25426;53.478;10.190;2022-10-18T03:16:25;47.58;;;22.73;;
39740;SDS011;25426;53.478;10.190;2022-10-18T03:18:56;40.22;;;24.42;;
39740;SDS011;25426;53.478;10.190;2022-10-18T03:21:30;43.92;;;24.75;;
39740;SDS011;25426;53.478;10.190;2022-10-18T03:24:01;32.00;;;20.05;;
39740;SDS011;25426;53.478;10.190;2022-10-18T03:26:35;27.60;;;19.17;;
39740;SDS011;25426;53.478;10.190;2022-10-18T03:29:07;40.85;;;25.00;;
39740;SDS011;25426;53.478;10.190;2022-10-18T03:31:42;34.47;;;19.92;;
39740;SDS011;25426;53.478;10.190;2022-10-18T03:34:14;35.00;;;21.15;;
39740;SDS011;25426;53.478;10.190;2022-10-18T03:36:46;51.47;;;26.17;;
39740;SDS011;25426;53.478;10.190;2022-10-18T03:39:25;45.75;;;22.27;;
39740;SDS011;25426;53.478;10.190;2022-10-18T03:41:56;50.13;;;24.60;;
39740;SDS011;25426;53.478;10.190;2022-10-18T03:44:34;37.45;;;20.75;;
39740;SDS011;25426;53.478;10.190;2022-10-18T03:47:05;46.15;;;26.40;;
39740;SDS011;25426;53.478;10.190;2022-10-18T03:49:36;48.83;;;26.38;;
39740;SDS011;25426;53.478;10.190;2022-10-18T03:52:13;51.80;;;26.98;;
39740;SDS011;25426;53.478;10.190;2022-10-18T03:54:44;48.83;;;24.77;;
39740;SDS011;25426;53.478;10.190;2022-10-18T03:57:15;50.15;;;26.50;;
39740;SDS011;25426;53.478;10.190;2022-10-18T03:59:46;50.75;;;26.35;;
39740;SDS011;25426;53.478;10.190;2022-10-18T04:02:23;54.67;;;27.27;;
39740;SDS011;25426;53.478;10.190;2022-10-18T04:04:54;51.72;;;28.20;;
39740;SDS011;25426;53.478;10.190;2022-10-18T04:07:27;44.38;;;24.67;;
39740;SDS011;25426;53.478;10.190;2022-10-18T04:10:01;51.92;;;25.88;;
39740;SDS011;25426;53.478;10.190;2022-10-18T04:12:35;55.15;;;27.65;;
39740;SDS011;25426;53.478;10.190;2022-10-18T04:15:07;41.78;;;23.17;;
39740;SDS011;25426;53.478;10.190;2022-10-18T04:17:49;40.42;;;23.55;;
39740;SDS011;25426;53.478;10.190;2022-10-18T04:20:23;50.17;;;26.50;;
39740;SDS011;25426;53.478;10.190;2022-10-18T04:23:04;46.05;;;24.92;;
39740;SDS011;25426;53.478;10.190;2022-10-18T04:25:35;42.05;;;22.77;;
39740;SDS011;25426;53.478;10.190;2022-10-18T04:28:06;53.08;;;25.92;;
39740;SDS011;25426;53.478;10.190;2022-10-18T04:30:47;54.38;;;26.95;;
39740;SDS011;25426;53.478;10.190;2022-10-18T04:33:27;47.95;;;23.17;;
39740;SDS011;25426;53.478;10.190;2022-10-18T04:36:00;60.42;;;26.73;;
39740;SDS011;25426;53.478;10.190;2022-10-18T04:38:34;64.03;;;29.00;;
39740;SDS011;25426;53.478;10.190;2022-10-18T04:41:06;39.20;;;23.08;;
39740;SDS011;25426;53.478;10.190;2022-10-18T04:43:46;34.40;;;21.73;;
39740;SDS011;25426;53.478;10.190;2022-10-18T04:46:25;33.28;;;19.85;;
39740;SDS011;25426;53.478;10.190;2022-10-18T04:48:56;27.02;;;17.40;;
39740;SDS011;25426;53.478;10.190;2022-10-18T04:51:33;30.45;;;18.00;;
39740;SDS011;25426;53.478;10.190;2022-10-18T04:54:05;37.40;;;20.33;;
39740;SDS011;25426;53.478;10.190;2022-10-18T04:56:37;26.27;;;17.58;;
39740;SDS011;25426;53.478;10.190;2022-10-18T04:59:15;33.35;;;20.25;;
39740;SDS011;25426;53.478;10.190;2022-10-18T05:01:46;64.50;;;27.17;;
39740;SDS011;25426;53.478;10.190;2022-10-18T05:04:22;57.40;;;25.83;;
39740;SDS011;25426;53.478;10.190;2022-10-18T05:06:53;79.10;;;30.33;;
39740;SDS011;25426;53.478;10.190;2022-10-18T05:09:25;72.43;;;29.40;;
39740;SDS011;25426;53.478;10.190;2022-10-18T05:11:56;70.45;;;29.10;;
39740;SDS011;25426;53.478;10.190;2022-10-18T05:14:27;58.40;;;29.23;;
39740;SDS011;25426;53.478;10.190;2022-10-18T05:17:00;65.82;;;29.00;;
39740;SDS011;25426;53.478;10.190;2022-10-18T05:19:34;53.55;;;24.83;;
39740;SDS011;25426;53.478;10.190;2022-10-18T05:22:05;79.93;;;29.77;;
39740;SDS011;25426;53.478;10.190;2022-10-18T05:24:36;43.75;;;21.75;;
39740;SDS011;25426;53.478;10.190;2022-10-18T05:27:15;50.83;;;23.83;;
39740;SDS011;25426;53.478;10.190;2022-10-18T05:29:46;38.28;;;21.55;;
39740;SDS011;25426;53.478;10.190;2022-10-18T05:32:17;68.13;;;28.38;;
39740;SDS011;25426;53.478;10.190;2022-10-18T05:34:48;67.80;;;27.92;;
39740;SDS011;25426;53.478;10.190;2022-10-18T05:37:27;45.00;;;23.08;;
39740;SDS011;25426;53.478;10.190;2022-10-18T05:40:05;79.90;;;31.10;;
39740;SDS011;25426;53.478;10.190;2022-10-18T05:42:43;40.20;;;23.05;;
39740;SDS011;25426;53.478;10.190;2022-10-18T05:45:14;73.25;;;31.05;;
39740;SDS011;25426;53.478;10.190;2022-10-18T05:47:45;67.40;;;29.55;;
39740;SDS011;25426;53.478;10.190;2022-10-18T05:50:16;68.50;;;30.42;;
39740;SDS011;25426;53.478;10.190;2022-10-18T05:52:55;69.18;;;31.20;;
39740;SDS011;25426;53.478;10.190;2022-10-18T05:55:26;45.13;;;24.80;;
39740;SDS011;25426;53.478;10.190;2022-10-18T05:58:05;74.40;;;30.50;;
39740;SDS011;25426;53.478;10.190;2022-10-18T06:00:36;68.20;;;27.63;;
39740;SDS011;25426;53.478;10.190;2022-10-18T06:03:15;73.60;;;30.23;;
39740;SDS011;25426;53.478;10.190;2022-10-18T06:05:47;54.78;;;28.13;;
39740;SDS011;25426;53.478;10.190;2022-10-18T06:08:23;64.10;;;29.08;;
39740;SDS011;25426;53.478;10.190;2022-10-18T06:10:55;72.60;;;31.13;;
39740;SDS011;25426;53.478;10.190;2022-10-18T06:13:26;43.95;;;24.30;;
39740;SDS011;25426;53.478;10.190;2022-10-18T06:16:04;67.47;;;29.02;;
39740;SDS011;25426;53.478;10.190;2022-10-18T06:18:36;85.38;;;29.23;;
39740;SDS011;25426;53.478;10.190;2022-10-18T06:21:07;43.53;;;23.70;;
39740;SDS011;25426;53.478;10.190;2022-10-18T06:23:51;69.32;;;27.42;;
39740;SDS011;25426;53.478;10.190;2022-10-18T06:26:27;67.20;;;27.08;;
39740;SDS011;25426;53.478;10.190;2022-10-18T06:29:03;43.03;;;22.58;;
39740;SDS011;25426;53.478;10.190;2022-10-18T06:31:34;36.60;;;20.10;;
39740;SDS011;25426;53.478;10.190;2022-10-18T06:34:06;62.63;;;23.80;;
39740;SDS011;25426;53.478;10.190;2022-10-18T06:36:37;43.72;;;21.27;;
39740;SDS011;25426;53.478;10.190;2022-10-18T06:39:13;53.88;;;24.85;;
39740;SDS011;25426;53.478;10.190;2022-10-18T06:41:54;38.35;;;20.83;;
39740;SDS011;25426;53.478;10.190;2022-10-18T06:44:27;54.42;;;24.65;;
39740;SDS011;25426;53.478;10.190;2022-10-18T06:47:06;39.03;;;20.95;;
39740;SDS011;25426;53.478;10.190;2022-10-18T06:49:44;44.13;;;22.20;;
39740;SDS011;25426;53.478;10.190;2022-10-18T06:52:16;41.35;;;24.40;;
39740;SDS011;25426;53.478;10.190;2022-10-18T06:54:55;85.40;;;28.00;;
39740;SDS011;25426;53.478;10.190;2022-10-18T06:57:26;69.97;;;28.20;;
39740;SDS011;25426;53.478;10.190;2022-10-18T06:59:57;53.30;;;24.90;;
39740;SDS011;25426;53.478;10.190;2022-10-18T07:02:34;66.50;;;29.58;;
39740;SDS011;25426;53.478;10.190;2022-10-18T07:05:07;53.50;;;26.05;;
39740;SDS011;25426;53.478;10.190;2022-10-18T07:07:46;56.20;;;26.85;;
39740;SDS011;25426;53.478;10.190;2022-10-18T07:10:17;81.15;;;29.00;;
39740;SDS011;25426;53.478;10.190;2022-10-18T07:12:54;70.13;;;28.77;;
39740;SDS011;25426;53.478;10.190;2022-10-18T07:15:25;66.47;;;28.85;;
39740;SDS011;25426;53.478;10.190;2022-10-18T07:18:02;70.68;;;30.25;;
39740;SDS011;25426;53.478;10.190;2022-10-18T07:20:33;69.75;;;30.67;;
39740;SDS011;25426;53.478;10.190;2022-10-18T07:23:05;57.30;;;28.50;;
39740;SDS011;25426;53.478;10.190;2022-10-18T07:25:40;61.75;;;29.00;;
39740;SDS011;25426;53.478;10.190;2022-10-18T07:28:16;53.08;;;29.67;;
39740;SDS011;25426;53.478;10.190;2022-10-18T07:30:52;55.70;;;26.50;;
39740;SDS011;25426;53.478;10.190;2022-10-18T07:33:55;61.97;;;26.95;;
39740;SDS011;25426;53.478;10.190;2022-10-18T07:36:45;63.47;;;27.90;;
39740;SDS011;25426;53.478;10.190;2022-10-18T07:39:16;57.70;;;28.50;;
39740;SDS011;25426;53.478;10.190;2022-10-18T07:41:47;54.60;;;27.13;;
39740;SDS011;25426;53.478;10.190;2022-10-18T07:44:21;44.28;;;25.63;;
39740;SDS011;25426;53.478;10.190;2022-10-18T07:46:52;46.90;;;23.67;;
39740;SDS011;25426;53.478;10.190;2022-10-18T07:49:23;53.05;;;26.00;;
39740;SDS011;25426;53.478;10.190;2022-10-18T07:51:54;52.42;;;26.50;;
39740;SDS011;25426;53.478;10.190;2022-10-18T07:54:25;53.95;;;25.77;;
39740;SDS011;25426;53.478;10.190;2022-10-18T07:56:56;52.45;;;24.77;;
39740;SDS011;25426;53.478;10.190;2022-10-18T07:59:27;56.17;;;25.83;;
39740;SDS011;25426;53.478;10.190;2022-10-18T08:02:01;45.42;;;23.98;;
39740;SDS011;25426;53.478;10.190;2022-10-18T08:04:35;46.38;;;23.70;;
39740;SDS011;25426;53.478;10.190;2022-10-18T08:07:06;37.45;;;23.75;;
39740;SDS011;25426;53.478;10.190;2022-10-18T08:09:38;35.20;;;21.38;;
39740;SDS011;25426;53.478;10.190;2022-10-18T08:12:12;34.97;;;22.63;;
39740;SDS011;25426;53.478;10.190;2022-10-18T08:14:46;39.33;;;22.52;;
39740;SDS011;25426;53.478;10.190;2022-10-18T08:17:35;32.75;;;20.38;;
39740;SDS011;25426;53.478;10.190;2022-10-18T08:20:07;34.42;;;21.45;;
39740;SDS011;25426;53.478;10.190;2022-10-18T08:22:44;34.65;;;20.35;;
39740;SDS011;25426;53.478;10.190;2022-10-18T08:25:44;28.35;;;19.85;;
39740;SDS011;25426;53.478;10.190;2022-10-18T08:28:15;30.45;;;20.48;;
39740;SDS011;25426;53.478;10.190;2022-10-18T08:30:54;28.23;;;19.58;;
39740;SDS011;25426;53.478;10.190;2022-10-18T08:33:36;29.80;;;19.40;;
39740;SDS011;25426;53.478;10.190;2022-10-18T08:36:09;29.08;;;19.00;;
39740;SDS011;25426;53.478;10.190;2022-10-18T08:38:43;31.40;;;20.00;;
39740;SDS011;25426;53.478;10.190;2022-10-18T08:44:18;30.92;;;19.80;;
39740;SDS011;25426;53.478;10.190;2022-10-18T08:46:59;30.95;;;18.27;;
39740;SDS011;25426;53.478;10.190;2022-10-18T08:49:51;28.83;;;19.00;;
39740;SDS011;25426;53.478;10.190;2022-10-18T08:56:04;28.45;;;17.48;;
39740;SDS011;25426;53.478;10.190;2022-10-18T08:58:43;29.83;;;18.42;;
39740;SDS011;25426;53.478;10.190;2022-10-18T09:39:18;28.25;;;16.90;;
39740;SDS011;25426;53.478;10.190;2022-10-18T09:42:41;23.42;;;17.95;;
39740;SDS011;25426;53.478;10.190;2022-10-18T09:45:35;19.08;;;14.90;;
39740;SDS011;25426;53.478;10.190;2022-10-18T09:48:12;27.13;;;15.70;;
39740;SDS011;25426;53.478;10.190;2022-10-18T09:51:07;22.33;;;15.27;;
39740;SDS011;25426;53.478;10.190;2022-10-18T09:57:17;24.15;;;14.70;;
39740;SDS011;25426;53.478;10.190;2022-10-18T10:00:13;17.95;;;13.25;;
39740;SDS011;25426;53.478;10.190;2022-10-18T10:02:54;21.88;;;12.85;;
39740;SDS011;25426;53.478;10.190;2022-10-18T10:05:26;16.42;;;11.70;;
39740;SDS011;25426;53.478;10.190;2022-10-18T10:07:58;19.60;;;12.32;;
39740;SDS011;25426;53.478;10.190;2022-10-18T10:10:31;15.23;;;11.77;;
39740;SDS011;25426;53.478;10.190;2022-10-18T10:13:04;23.45;;;11.65;;
39740;SDS011;25426;53.478;10.190;2022-10-18T10:16:00;14.88;;;10.82;;
39740;SDS011;25426;53.478;10.190;2022-10-18T10:18:32;13.75;;;9.68;;
39740;SDS011;25426;53.478;10.190;2022-10-18T10:21:06;16.15;;;9.60;;
39740;SDS011;25426;53.478;10.190;2022-10-18T10:23:44;18.00;;;10.18;;
39740;SDS011;25426;53.478;10.190;2022-10-18T10:26:30;11.85;;;8.82;;
39740;SDS011;25426;53.478;10.190;2022-10-18T10:29:10;9.93;;;6.72;;
39740;SDS011;25426;53.478;10.190;2022-10-18T10:32:16;10.90;;;6.05;;
39740;SDS011;25426;53.478;10.190;2022-10-18T10:34:50;13.07;;;5.28;;
39740;SDS011;25426;53.478;10.190;2022-10-18T10:42:49;15.38;;;6.25;;
39740;SDS011;25426;53.478;10.190;2022-10-18T10:45:30;11.15;;;5.25;;
39740;SDS011;25426;53.478;10.190;2022-10-18T10:48:13;11.05;;;5.80;;
39740;SDS011;25426;53.478;10.190;2022-10-18T10:50:48;8.73;;;4.80;;
39740;SDS011;25426;53.478;10.190;2022-10-18T10:56:34;5.82;;;3.85;;
39740;SDS011;25426;53.478;10.190;2022-10-18T10:59:21;11.13;;;4.45;;
39740;SDS011;25426;53.478;10.190;2022-10-18T11:04:44;8.73;;;4.55;;
39740;SDS011;25426;53.478;10.190;2022-10-18T11:07:26;8.15;;;5.85;;
39740;SDS011;25426;53.478;10.190;2022-10-18T11:10:15;8.70;;;6.07;;
39740;SDS011;25426;53.478;10.190;2022-10-18T11:12:57;9.68;;;6.35;;
39740;SDS011;25426;53.478;10.190;2022-10-18T11:16:02;13.07;;;6.60;;
39740;SDS011;25426;53.478;10.190;2022-10-18T11:18:41;15.68;;;8.13;;
39740;SDS011;25426;53.478;10.190;2022-10-18T11:21:20;11.77;;;6.38;;
39740;SDS011;25426;53.478;10.190;2022-10-18T11:23:57;13.98;;;7.05;;
39740;SDS011;25426;53.478;10.190;2022-10-18T11:38:59;11.48;;;6.78;;
39740;SDS011;25426;53.478;10.190;2022-10-18T11:42:08;15.60;;;7.13;;
39740;SDS011;25426;53.478;10.190;2022-10-18T11:45:21;11.77;;;7.18;;
39740;SDS011;25426;53.478;10.190;2022-10-18T11:48:47;10.88;;;6.63;;
39740;SDS011;25426;53.478;10.190;2022-10-18T11:52:07;8.52;;;5.38;;
39740;SDS011;25426;53.478;10.190;2022-10-18T11:57:42;16.58;;;6.20;;
39740;SDS011;25426;53.478;10.190;2022-10-18T12:00:36;12.63;;;5.80;;
39740;SDS011;25426;53.478;10.190;2022-10-18T12:03:25;12.95;;;5.45;;
39740;SDS011;25426;53.478;10.190;2022-10-18T12:06:35;11.50;;;5.80;;
39740;SDS011;25426;53.478;10.190;2022-10-18T12:09:13;10.13;;;5.53;;
39740;SDS011;25426;53.478;10.190;2022-10-18T12:12:44;14.23;;;5.93;;
39740;SDS011;25426;53.478;10.190;2022-10-18T12:15:19;14.25;;;4.40;;
39740;SDS011;25426;53.478;10.190;2022-10-18T12:17:57;12.63;;;5.30;;
39740;SDS011;25426;53.478;10.190;2022-10-18T12:20:38;13.82;;;5.63;;
39740;SDS011;25426;53.478;10.190;2022-10-18T12:26:00;13.30;;;5.30;;
39740;SDS011;25426;53.478;10.190;2022-10-18T12:31:58;11.23;;;5.53;;
39740;SDS011;25426;53.478;10.190;2022-10-18T12:34:42;11.07;;;5.72;;
39740;SDS011;25426;53.478;10.190;2022-10-18T12:37:25;19.23;;;5.97;;
39740;SDS011;25426;53.478;10.190;2022-10-18T12:40:43;16.85;;;6.13;;
39740;SDS011;25426;53.478;10.190;2022-10-18T12:43:20;17.60;;;6.45;;
39740;SDS011;25426;53.478;10.190;2022-10-18T12:45:56;14.40;;;4.90;;
39740;SDS011;25426;53.478;10.190;2022-10-18T12:51:12;12.30;;;4.90;;
39740;SDS011;25426;53.478;10.190;2022-10-18T12:56:32;13.48;;;4.65;;
39740;SDS011;25426;53.478;10.190;2022-10-18T13:09:39;12.73;;;5.43;;
39740;SDS011;25426;53.478;10.190;2022-10-18T13:15:15;16.42;;;5.75;;
39740;SDS011;25426;53.478;10.190;2022-10-18T13:18:25;12.90;;;4.40;;
39740;SDS011;25426;53.478;10.190;2022-10-18T13:21:42;12.38;;;4.40;;
39740;SDS011;25426;53.478;10.190;2022-10-18T13:24:36;10.90;;;4.07;;
39740;SDS011;25426;53.478;10.190;2022-10-18T13:33:21;9.30;;;3.67;;
39740;SDS011;25426;53.478;10.190;2022-10-18T13:36:18;6.60;;;2.97;;
39740;SDS011;25426;53.478;10.190;2022-10-18T13:44:33;13.98;;;3.10;;
39740;SDS011;25426;53.478;10.190;2022-10-18T13:47:10;8.85;;;3.13;;
39740;SDS011;25426;53.478;10.190;2022-10-18T13:49:52;14.40;;;3.65;;
39740;SDS011;25426;53.478;10.190;2022-10-18T13:53:07;10.88;;;2.30;;
39740;SDS011;25426;53.478;10.190;2022-10-18T13:56:12;10.27;;;2.33;;
39740;SDS011;25426;53.478;10.190;2022-10-18T14:02:52;8.07;;;2.60;;
39740;SDS011;25426;53.478;10.190;2022-10-18T14:06:09;9.77;;;2.22;;
39740;SDS011;25426;53.478;10.190;2022-10-18T14:09:02;10.50;;;2.45;;
39740;SDS011;25426;53.478;10.190;2022-10-18T14:11:51;9.60;;;2.35;;
39740;SDS011;25426;53.478;10.190;2022-10-18T14:14:58;12.88;;;2.75;;
39740;SDS011;25426;53.478;10.190;2022-10-18T14:17:54;11.25;;;2.78;;
39740;SDS011;25426;53.478;10.190;2022-10-18T14:21:11;8.98;;;2.88;;
39740;SDS011;25426;53.478;10.190;2022-10-18T14:23:49;12.30;;;3.20;;
39740;SDS011;25426;53.478;10.190;2022-10-18T14:26:20;10.20;;;2.97;;
39740;SDS011;25426;53.478;10.190;2022-10-18T14:29:02;9.77;;;2.38;;
39740;SDS011;25426;53.478;10.190;2022-10-18T14:31:49;9.75;;;2.92;;
39740;SDS011;25426;53.478;10.190;2022-10-18T14:34:23;12.73;;;3.42;;
39740;SDS011;25426;53.478;10.190;2022-10-18T14:36:55;11.27;;;3.33;;
39740;SDS011;25426;53.478;10.190;2022-10-18T14:39:26;4.68;;;1.92;;
39740;SDS011;25426;53.478;10.190;2022-10-18T14:41:59;12.43;;;2.65;;
39740;SDS011;25426;53.478;10.190;2022-10-18T14:44:32;11.68;;;2.60;;
39740;SDS011;25426;53.478;10.190;2022-10-18T14:47:13;8.18;;;2.20;;
39740;SDS011;25426;53.478;10.190;2022-10-18T14:49:54;6.88;;;2.30;;
39740;SDS011;25426;53.478;10.190;2022-10-18T14:52:29;9.02;;;2.00;;
39740;SDS011;25426;53.478;10.190;2022-10-18T14:55:01;7.45;;;2.25;;
39740;SDS011;25426;53.478;10.190;2022-10-18T14:57:33;12.43;;;2.58;;
39740;SDS011;25426;53.478;10.190;2022-10-18T15:00:06;11.68;;;2.67;;
39740;SDS011;25426;53.478;10.190;2022-10-18T15:02:43;12.55;;;2.90;;
39740;SDS011;25426;53.478;10.190;2022-10-18T15:05:19;8.32;;;2.13;;
39740;SDS011;25426;53.478;10.190;2022-10-18T15:07:57;7.13;;;1.92;;
39740;SDS011;25426;53.478;10.190;2022-10-18T15:10:29;10.73;;;3.17;;
39740;SDS011;25426;53.478;10.190;2022-10-18T15:13:04;10.60;;;2.53;;
39740;SDS011;25426;53.478;10.190;2022-10-18T15:15:35;10.35;;;3.15;;
39740;SDS011;25426;53.478;10.190;2022-10-18T15:18:06;13.93;;;2.90;;
39740;SDS011;25426;53.478;10.190;2022-10-18T15:21:06;8.48;;;2.63;;
39740;SDS011;25426;53.478;10.190;2022-10-18T15:23:51;8.43;;;2.58;;
39740;SDS011;25426;53.478;10.190;2022-10-18T15:26:24;9.20;;;2.33;;
39740;SDS011;25426;53.478;10.190;2022-10-18T15:28:58;16.75;;;3.92;;
39740;SDS011;25426;53.478;10.190;2022-10-18T15:31:30;10.32;;;2.30;;
39740;SDS011;25426;53.478;10.190;2022-10-18T15:34:21;11.90;;;2.83;;
39740;SDS011;25426;53.478;10.190;2022-10-18T15:36:56;10.82;;;2.90;;
39740;SDS011;25426;53.478;10.190;2022-10-18T15:39:27;18.38;;;3.35;;
39740;SDS011;25426;53.478;10.190;2022-10-18T15:42:01;12.95;;;3.13;;
39740;SDS011;25426;53.478;10.190;2022-10-18T15:44:33;17.27;;;3.28;;
39740;SDS011;25426;53.478;10.190;2022-10-18T15:47:19;12.02;;;2.78;;
39740;SDS011;25426;53.478;10.190;2022-10-18T15:49:57;11.15;;;2.38;;
39740;SDS011;25426;53.478;10.190;2022-10-18T15:58:02;11.82;;;3.15;;
39740;SDS011;25426;53.478;10.190;2022-10-18T16:00:56;14.02;;;3.22;;
39740;SDS011;25426;53.478;10.190;2022-10-18T16:03:33;14.38;;;4.03;;
39740;SDS011;25426;53.478;10.190;2022-10-18T16:06:05;15.30;;;2.60;;
39740;SDS011;25426;53.478;10.190;2022-10-18T16:08:40;11.55;;;2.95;;
39740;SDS011;25426;53.478;10.190;2022-10-18T16:11:22;13.77;;;2.97;;
39740;SDS011;25426;53.478;10.190;2022-10-18T16:13:54;10.90;;;2.97;;
39740;SDS011;25426;53.478;10.190;2022-10-18T16:16:26;10.38;;;3.38;;
39740;SDS011;25426;53.478;10.190;2022-10-18T16:18:58;11.68;;;3.50;;
39740;SDS011;25426;53.478;10.190;2022-10-18T16:21:31;8.63;;;2.92;;
39740;SDS011;25426;53.478;10.190;2022-10-18T16:24:05;16.45;;;3.80;;
39740;SDS011;25426;53.478;10.190;2022-10-18T16:26:36;14.13;;;4.78;;
39740;SDS011;25426;53.478;10.190;2022-10-18T16:29:12;14.35;;;3.33;;
39740;SDS011;25426;53.478;10.190;2022-10-18T16:31:51;13.27;;;2.47;;
39740;SDS011;25426;53.478;10.190;2022-10-18T16:34:26;14.25;;;3.50;;
39740;SDS011;25426;53.478;10.190;2022-10-18T16:36:57;8.77;;;2.53;;
39740;SDS011;25426;53.478;10.190;2022-10-18T16:39:28;15.55;;;2.70;;
39740;SDS011;25426;53.478;10.190;2022-10-18T16:42:03;8.85;;;2.70;;
39740;SDS011;25426;53.478;10.190;2022-10-18T16:44:34;11.38;;;3.03;;
39740;SDS011;25426;53.478;10.190;2022-10-18T16:47:05;14.68;;;3.65;;
39740;SDS011;25426;53.478;10.190;2022-10-18T16:49:36;12.00;;;3.33;;
39740;SDS011;25426;53.478;10.190;2022-10-18T16:52:07;8.27;;;3.20;;
39740;SDS011;25426;53.478;10.190;2022-10-18T16:54:38;11.82;;;3.47;;
39740;SDS011;25426;53.478;10.190;2022-10-18T16:57:09;13.35;;;3.10;;
39740;SDS011;25426;53.478;10.190;2022-10-18T16:59:41;14.68;;;3.45;;
39740;SDS011;25426;53.478;10.190;2022-10-18T17:02:12;11.23;;;3.63;;
39740;SDS011;25426;53.478;10.190;2022-10-18T17:04:43;10.07;;;3.22;;
39740;SDS011;25426;53.478;10.190;2022-10-18T17:07:17;13.13;;;3.00;;
39740;SDS011;25426;53.478;10.190;2022-10-18T17:09:53;13.40;;;3.40;;
39740;SDS011;25426;53.478;10.190;2022-10-18T17:12:24;15.07;;;3.42;;
39740;SDS011;25426;53.478;10.190;2022-10-18T17:14:55;11.85;;;3.30;;
39740;SDS011;25426;53.478;10.190;2022-10-18T17:17:26;15.38;;;4.25;;
39740;SDS011;25426;53.478;10.190;2022-10-18T17:19:57;11.85;;;4.05;;
39740;SDS011;25426;53.478;10.190;2022-10-18T17:22:28;12.38;;;3.65;;
39740;SDS011;25426;53.478;10.190;2022-10-18T17:24:59;16.13;;;3.97;;
39740;SDS011;25426;53.478;10.190;2022-10-18T17:27:30;12.45;;;3.45;;
39740;SDS011;25426;53.478;10.190;2022-10-18T17:30:01;19.58;;;4.95;;
39740;SDS011;25426;53.478;10.190;2022-10-18T17:32:32;10.50;;;2.80;;
39740;SDS011;25426;53.478;10.190;2022-10-18T17:35:03;9.40;;;2.80;;
39740;SDS011;25426;53.478;10.190;2022-10-18T17:37:35;13.18;;;3.80;;
39740;SDS011;25426;53.478;10.190;2022-10-18T17:40:07;15.02;;;4.10;;